Time;durP1;ratioP1;P1;durP2;ratioP2;P2;SDS_P1;SDS_P2;PMS_P1;PMS_P2;Temp;Humidity;BMP_temperature;BMP_pressure;BME280_temperature;BME280_humidity;BME280_pressure;Samples;Min_cycle;Max_cycle;Signal;HPM_P1;HPM_P2
2021/06/17 00:00:33;0.00;0.00;0.62;0.00;0.00;0.62;10.73;9.93;;;31.50;32.40;;;;;;2249281;61;20449;-66
2021/06/17 00:03:01;0.00;0.00;0.62;0.00;0.00;0.62;8.97;8.30;;;31.50;32.50;;;;;;2249464;61;20443;-67
2021/06/17 00:05:30;0.00;0.00;0.62;0.00;0.00;0.62;9.77;9.00;;;31.50;32.50;;;;;;2249386;61;20589;-65
2021/06/17 00:07:57;0.00;0.00;0.62;0.00;0.00;0.62;10.47;9.57;;;31.50;32.50;;;;;;2249391;61;20384;-68
2021/06/17 00:10:28;0.00;0.00;0.62;0.00;0.00;0.62;11.30;10.40;;;31.50;32.50;;;;;;2252192;61;20366;-67
2021/06/17 00:12:56;0.00;0.00;0.62;0.00;0.00;0.62;10.20;9.30;;;31.40;32.50;;;;;;2249304;61;20350;-67
2021/06/17 00:15:26;0.00;0.00;0.62;0.00;0.00;0.62;10.20;9.30;;;31.40;32.50;;;;;;2249242;61;20361;-67
2021/06/17 00:17:53;0.00;0.00;0.62;0.00;0.00;0.62;10.47;9.67;;;31.40;32.50;;;;;;2249627;61;20433;-67
2021/06/17 00:20:22;0.00;0.00;0.62;0.00;0.00;0.62;8.90;8.10;;;31.40;32.50;;;;;;2249261;61;20368;-67
2021/06/17 00:22:49;0.00;0.00;0.62;0.00;0.00;0.62;9.40;8.70;;;31.40;32.50;;;;;;2249205;61;20636;-68
2021/06/17 00:25:16;0.00;0.00;0.62;0.00;0.00;0.62;9.40;8.70;;;31.40;32.50;;;;;;2249555;61;20358;-67
2021/06/17 00:27:43;0.00;0.00;0.62;0.00;0.00;0.62;10.40;9.50;;;31.40;32.50;;;;;;2249238;61;20384;-68
2021/06/17 00:30:11;0.00;0.00;0.62;0.00;0.00;0.62;9.73;8.93;;;31.40;32.50;;;;;;2249280;61;20357;-68
2021/06/17 00:32:39;0.00;0.00;0.62;0.00;0.00;0.62;9.60;8.80;;;31.40;32.50;;;;;;2249612;61;20603;-68
2021/06/17 00:35:08;0.00;0.00;0.62;0.00;0.00;0.62;9.27;8.33;;;31.40;32.60;;;;;;2249157;61;20432;-68
2021/06/17 00:37:36;0.00;0.00;0.62;0.00;0.00;0.62;10.30;9.40;;;31.40;32.50;;;;;;2249338;61;20354;-67
2021/06/17 00:40:06;0.00;0.00;0.62;0.00;0.00;0.62;15.43;9.47;;;31.40;32.50;;;;;;2249427;61;20436;-69
2021/06/17 00:42:33;0.00;0.00;0.62;0.00;0.00;0.62;9.63;8.93;;;31.40;32.50;;;;;;2249079;61;20584;-68
2021/06/17 00:45:00;0.00;0.00;0.62;0.00;0.00;0.62;9.90;8.90;;;31.40;32.50;;;;;;2249291;61;20365;-70
2021/06/17 00:47:27;0.00;0.00;0.62;0.00;0.00;0.62;9.53;8.73;;;31.40;32.50;;;;;;2249488;61;20419;-66
2021/06/17 00:49:55;0.00;0.00;0.62;0.00;0.00;0.62;9.60;8.80;;;31.30;32.40;;;;;;2249092;61;20695;-67
2021/06/17 00:52:22;0.00;0.00;0.62;0.00;0.00;0.62;10.30;9.50;;;31.40;32.50;;;;;;2249888;61;20383;-67
2021/06/17 00:54:48;0.00;0.00;0.62;0.00;0.00;0.62;10.63;9.77;;;31.30;32.40;;;;;;2250258;61;20354;-69
2021/06/17 00:57:15;0.00;0.00;0.62;0.00;0.00;0.62;10.47;9.67;;;31.30;33.00;;;;;;2249798;61;20354;-67
2021/06/17 00:59:41;0.00;0.00;0.62;0.00;0.00;0.62;9.60;8.83;;;31.30;32.40;;;;;;2249872;61;20404;-68
2021/06/17 01:02:08;0.00;0.00;0.62;0.00;0.00;0.62;10.17;9.17;;;31.30;32.40;;;;;;2250132;61;20388;-67
2021/06/17 01:04:35;0.00;0.00;0.62;0.00;0.00;0.62;10.23;8.53;;;31.30;32.40;;;;;;2249722;61;20364;-68
2021/06/17 01:07:04;0.00;0.00;0.62;0.00;0.00;0.62;10.60;9.60;;;31.30;32.40;;;;;;2249839;61;20388;-68
2021/06/17 01:09:45;0.00;0.00;0.62;0.00;0.00;0.62;9.93;9.03;;;31.30;32.50;;;;;;2250070;61;20365;-67
2021/06/17 01:12:23;0.00;0.00;0.62;0.00;0.00;0.62;10.27;9.37;;;31.30;32.50;;;;;;2249776;61;20384;-67
2021/06/17 01:14:58;0.00;0.00;0.62;0.00;0.00;0.62;10.37;9.57;;;31.20;32.30;;;;;;2249867;61;20362;-68
2021/06/17 01:17:28;0.00;0.00;0.62;0.00;0.00;0.62;9.60;8.83;;;31.20;32.40;;;;;;2250068;61;20356;-67
2021/06/17 01:20:11;0.00;0.00;0.62;0.00;0.00;0.62;10.20;9.30;;;31.20;32.40;;;;;;2249692;61;20582;-66
2021/06/17 01:22:50;0.00;0.00;0.62;0.00;0.00;0.62;9.50;8.70;;;31.20;32.50;;;;;;2249746;61;20388;-68
2021/06/17 01:25:47;0.00;0.00;0.62;0.00;0.00;0.62;9.73;8.90;;;31.10;32.40;;;;;;2250029;61;20368;-69
2021/06/17 01:28:16;0.00;0.00;0.62;0.00;0.00;0.62;10.43;9.63;;;31.10;32.40;;;;;;2249791;61;20378;-67
2021/06/17 01:30:50;0.00;0.00;0.62;0.00;0.00;0.62;9.33;8.63;;;31.10;32.50;;;;;;2249821;61;20366;-68
2021/06/17 01:33:19;0.00;0.00;0.62;0.00;0.00;0.62;8.93;8.13;;;31.10;32.50;;;;;;2252823;61;20354;-66
2021/06/17 01:35:49;0.00;0.00;0.62;0.00;0.00;0.62;10.37;9.50;;;31.10;32.50;;;;;;2249622;61;20445;-68
2021/06/17 01:38:21;0.00;0.00;0.62;0.00;0.00;0.62;9.10;8.40;;;31.10;32.50;;;;;;2250128;61;20576;-69
2021/06/17 01:40:50;0.00;0.00;0.62;0.00;0.00;0.62;9.60;8.73;;;31.10;32.50;;;;;;2249916;61;20741;-66
2021/06/17 01:43:20;0.00;0.00;0.62;0.00;0.00;0.62;9.90;9.10;;;31.10;32.60;;;;;;2249365;61;20446;-68
2021/06/17 01:45:48;0.00;0.00;0.62;0.00;0.00;0.62;11.60;10.27;;;31.10;32.50;;;;;;2250008;61;20384;-67
2021/06/17 01:48:16;0.00;0.00;0.62;0.00;0.00;0.62;10.47;9.50;;;31.10;32.50;;;;;;2249968;61;20520;-67
2021/06/17 01:50:46;0.00;0.00;0.62;0.00;0.00;0.62;10.07;9.20;;;31.00;32.40;;;;;;2249559;61;20358;-69
2021/06/17 01:53:17;0.00;0.00;0.62;0.00;0.00;0.62;10.60;9.70;;;31.00;32.40;;;;;;2249975;61;20361;-68
2021/06/17 01:55:45;0.00;0.00;0.62;0.00;0.00;0.62;11.03;9.87;;;31.00;32.40;;;;;;2249969;61;20368;-69
2021/06/17 01:58:18;0.00;0.00;0.62;0.00;0.00;0.62;10.53;9.43;;;31.00;33.00;;;;;;2252374;61;20604;-67
2021/06/17 02:00:49;0.00;0.00;0.62;0.00;0.00;0.62;10.20;9.30;;;30.90;32.30;;;;;;2249832;61;20428;-67
2021/06/17 02:03:17;0.00;0.00;0.62;0.00;0.00;0.62;10.10;9.20;;;30.90;32.30;;;;;;2249797;61;20566;-68
2021/06/17 02:05:44;0.00;0.00;0.62;0.00;0.00;0.62;9.23;8.37;;;30.80;32.20;;;;;;2252330;61;20381;-67
2021/06/17 02:08:16;0.00;0.00;0.62;0.00;0.00;0.62;10.20;9.30;;;30.80;32.30;;;;;;2249894;61;20491;-67
2021/06/17 02:10:44;0.00;0.00;0.62;0.00;0.00;0.62;10.10;9.30;;;30.80;32.30;;;;;;2249824;61;20358;-68
2021/06/17 02:13:14;0.00;0.00;0.62;0.00;0.00;0.62;11.33;10.43;;;30.70;32.30;;;;;;2249436;61;20364;-68
2021/06/17 02:15:43;0.00;0.00;0.62;0.00;0.00;0.62;10.83;9.83;;;30.70;32.20;;;;;;2249888;61;20341;-68
2021/06/17 02:18:13;0.00;0.00;0.62;0.00;0.00;0.62;9.30;8.60;;;30.70;32.20;;;;;;2252726;61;20397;-69
2021/06/17 02:20:42;0.00;0.00;0.62;0.00;0.00;0.62;10.10;9.30;;;30.70;33.00;;;;;;2249386;61;20569;-67
2021/06/17 02:23:14;0.00;0.00;0.62;0.00;0.00;0.62;9.20;8.50;;;30.70;32.30;;;;;;2249729;61;20687;-67
2021/06/17 02:25:42;0.00;0.00;0.62;0.00;0.00;0.62;10.07;9.23;;;30.70;32.30;;;;;;2249955;61;20365;-68
2021/06/17 02:28:15;0.00;0.00;0.62;0.00;0.00;0.62;9.63;8.87;;;30.70;32.30;;;;;;2249470;61;20733;-67
2021/06/17 02:30:44;0.00;0.00;0.62;0.00;0.00;0.62;9.30;8.60;;;30.70;32.30;;;;;;2249796;61;20428;-69
2021/06/17 02:33:17;0.00;0.00;0.62;0.00;0.00;0.62;10.77;9.97;;;30.70;32.30;;;;;;2249772;61;20581;-67
2021/06/17 02:35:45;0.00;0.00;0.62;0.00;0.00;0.62;9.33;8.53;;;30.70;32.20;;;;;;2249690;61;20377;-69
2021/06/17 02:38:16;0.00;0.00;0.62;0.00;0.00;0.62;9.63;8.90;;;30.70;32.20;;;;;;2249830;61;20358;-69
2021/06/17 02:40:46;0.00;0.00;0.62;0.00;0.00;0.62;10.20;9.40;;;30.70;32.10;;;;;;2249416;61;20375;-67
2021/06/17 02:43:16;0.00;0.00;0.62;0.00;0.00;0.62;10.00;9.17;;;30.70;32.10;;;;;;2249468;61;20444;-67
2021/06/17 02:45:44;0.00;0.00;0.62;0.00;0.00;0.62;9.90;9.10;;;30.70;32.10;;;;;;2249869;61;20436;-67
2021/06/17 02:48:13;0.00;0.00;0.62;0.00;0.00;0.62;9.73;8.90;;;30.70;32.10;;;;;;2249718;61;20382;-66
2021/06/17 02:50:40;0.00;0.00;0.62;0.00;0.00;0.62;10.00;9.20;;;30.70;32.10;;;;;;2249514;61;20405;-67
2021/06/17 02:53:07;0.00;0.00;0.62;0.00;0.00;0.62;10.40;9.60;;;30.70;32.10;;;;;;2249730;61;20361;-68
2021/06/17 02:55:34;0.00;0.00;0.62;0.00;0.00;0.62;9.73;8.73;;;30.70;32.20;;;;;;2249450;61;20357;-68
2021/06/17 02:58:22;0.00;0.00;0.62;0.00;0.00;0.62;9.10;8.40;;;30.70;32.20;;;;;;2249581;61;20390;-67
2021/06/17 03:00:57;0.00;0.00;0.62;0.00;0.00;0.62;9.90;8.90;;;30.60;32.10;;;;;;2249908;61;20385;-67
2021/06/17 03:03:33;0.00;0.00;0.62;0.00;0.00;0.62;10.60;9.70;;;30.60;32.20;;;;;;2249326;61;20362;-69
2021/06/17 03:06:05;0.00;0.00;0.62;0.00;0.00;0.62;9.60;8.87;;;30.60;32.20;;;;;;2249615;61;20369;-69
2021/06/17 03:08:36;0.00;0.00;0.62;0.00;0.00;0.62;9.53;8.80;;;30.60;32.20;;;;;;2249751;61;20392;-66
2021/06/17 03:11:10;0.00;0.00;0.62;0.00;0.00;0.62;9.40;8.70;;;30.60;32.20;;;;;;2249442;61;20388;-67
2021/06/17 03:13:41;0.00;0.00;0.62;0.00;0.00;0.62;10.60;9.70;;;30.60;32.20;;;;;;2252310;61;20361;-66
2021/06/17 03:16:11;0.00;0.00;0.62;0.00;0.00;0.62;9.57;8.67;;;30.60;32.20;;;;;;2249683;61;20519;-71
2021/06/17 03:18:42;0.00;0.00;0.62;0.00;0.00;0.62;9.27;8.57;;;30.60;32.20;;;;;;2249523;61;20690;-71
2021/06/17 03:21:09;0.00;0.00;0.62;0.00;0.00;0.62;8.77;7.97;;;30.60;32.30;;;;;;2249488;61;20382;-71
2021/06/17 03:23:38;0.00;0.00;0.62;0.00;0.00;0.62;10.37;9.47;;;30.60;32.30;;;;;;2249658;61;20361;-71
2021/06/17 03:26:08;0.00;0.00;0.62;0.00;0.00;0.62;9.30;8.60;;;30.60;32.30;;;;;;2249448;61;20364;-70
2021/06/17 03:28:37;0.00;0.00;0.62;0.00;0.00;0.62;9.67;8.90;;;30.60;32.20;;;;;;2249689;61;20429;-65
2021/06/17 03:31:07;0.00;0.00;0.62;0.00;0.00;0.62;10.20;9.40;;;30.60;32.20;;;;;;2249643;61;20594;-67
2021/06/17 03:33:37;0.00;0.00;0.62;0.00;0.00;0.62;10.37;9.47;;;30.60;32.20;;;;;;2249368;61;20350;-70
2021/06/17 03:36:07;0.00;0.00;0.62;0.00;0.00;0.62;11.10;10.10;;;30.60;32.30;;;;;;2249523;61;20433;-68
2021/06/17 03:38:35;0.00;0.00;0.62;0.00;0.00;0.62;11.10;10.10;;;30.60;32.30;;;;;;2249660;61;20358;-71
2021/06/17 03:41:04;0.00;0.00;0.62;0.00;0.00;0.62;9.53;8.70;;;30.50;32.30;;;;;;2249200;61;20610;-66
2021/06/17 03:43:34;0.00;0.00;0.62;0.00;0.00;0.62;9.63;8.93;;;30.50;32.30;;;;;;2249360;61;20436;-71
2021/06/17 03:46:01;0.00;0.00;0.62;0.00;0.00;0.62;10.63;9.63;;;30.50;32.30;;;;;;2249760;61;20365;-66
2021/06/17 03:48:28;0.00;0.00;0.62;0.00;0.00;0.62;10.00;9.10;;;30.50;32.30;;;;;;2249350;61;20431;-66
2021/06/17 03:50:55;0.00;0.00;0.62;0.00;0.00;0.62;9.83;8.87;;;30.50;32.40;;;;;;2249354;61;20436;-67
2021/06/17 03:53:23;0.00;0.00;0.62;0.00;0.00;0.62;10.10;9.23;;;30.50;32.40;;;;;;2249586;61;20417;-68
2021/06/17 03:55:53;0.00;0.00;0.62;0.00;0.00;0.62;10.33;9.43;;;30.50;33.10;;;;;;2249301;61;20565;-70
2021/06/17 03:58:23;0.00;0.00;0.62;0.00;0.00;0.62;10.97;10.07;;;30.50;32.50;;;;;;2252247;61;20706;-69
2021/06/17 04:00:50;0.00;0.00;0.62;0.00;0.00;0.62;10.60;9.70;;;30.50;32.50;;;;;;2249555;61;20381;-72
2021/06/17 04:03:17;0.00;0.00;0.62;0.00;0.00;0.62;10.33;9.53;;;30.50;32.40;;;;;;2251942;61;20361;-68
2021/06/17 04:05:44;0.00;0.00;0.62;0.00;0.00;0.62;9.13;8.43;;;30.40;32.30;;;;;;2249519;61;20358;-66
2021/06/17 04:08:14;0.00;0.00;0.62;0.00;0.00;0.62;9.77;9.07;;;30.50;32.40;;;;;;2249563;61;20712;-72
2021/06/17 04:10:43;0.00;0.00;0.62;0.00;0.00;0.62;9.07;8.27;;;30.50;32.40;;;;;;2251998;61;20749;-68
2021/06/17 04:13:12;0.00;0.00;0.62;0.00;0.00;0.62;9.93;9.03;;;30.50;32.40;;;;;;2249467;61;20373;-68
2021/06/17 04:15:40;0.00;0.00;0.62;0.00;0.00;0.62;9.63;8.83;;;30.40;33.00;;;;;;2249560;61;20721;-68
2021/06/17 04:18:09;0.00;0.00;0.62;0.00;0.00;0.62;10.40;9.50;;;30.50;32.50;;;;;;2249324;61;20361;-70
2021/06/17 04:20:40;0.00;0.00;0.62;0.00;0.00;0.62;10.07;9.27;;;30.50;32.50;;;;;;2249361;61;20358;-69
2021/06/17 04:23:08;0.00;0.00;0.62;0.00;0.00;0.62;9.67;8.77;;;30.50;32.50;;;;;;2249611;61;20368;-68
2021/06/17 04:25:36;0.00;0.00;0.62;0.00;0.00;0.62;9.77;8.97;;;30.50;32.40;;;;;;2249622;61;20358;-70
2021/06/17 04:28:05;0.00;0.00;0.62;0.00;0.00;0.62;10.20;9.40;;;30.40;32.30;;;;;;2250750;61;20377;-69
2021/06/17 04:30:34;0.00;0.00;0.62;0.00;0.00;0.62;9.13;8.07;;;30.40;32.30;;;;;;2250766;61;20587;-71
2021/06/17 04:33:04;0.00;0.00;0.62;0.00;0.00;0.62;10.70;9.60;;;30.40;32.40;;;;;;2250755;61;20357;-65
2021/06/17 04:35:36;0.00;0.00;0.62;0.00;0.00;0.62;9.30;8.40;;;30.40;32.50;;;;;;2250722;61;20473;-68
2021/06/17 04:38:03;0.00;0.00;0.62;0.00;0.00;0.62;9.57;8.77;;;30.40;32.50;;;;;;2250861;61;20497;-68
2021/06/17 04:40:31;0.00;0.00;0.62;0.00;0.00;0.62;9.53;8.83;;;30.40;32.60;;;;;;2250442;61;20678;-70
2021/06/17 04:42:59;0.00;0.00;0.62;0.00;0.00;0.62;9.53;8.77;;;30.40;32.60;;;;;;2250619;61;20354;-68
2021/06/17 04:45:30;0.00;0.00;0.62;0.00;0.00;0.62;10.33;9.53;;;30.40;32.60;;;;;;2250795;61;20381;-68
2021/06/17 04:48:00;0.00;0.00;0.62;0.00;0.00;0.62;9.30;8.60;;;30.40;32.60;;;;;;2250576;61;20369;-67
2021/06/17 04:50:27;0.00;0.00;0.62;0.00;0.00;0.62;10.70;9.70;;;30.40;32.60;;;;;;2250547;61;20368;-71
2021/06/17 04:53:12;0.00;0.00;0.62;0.00;0.00;0.62;10.20;9.40;;;30.40;32.50;;;;;;2250778;61;20497;-66
2021/06/17 04:55:47;0.00;0.00;0.62;0.00;0.00;0.62;9.90;9.13;;;30.40;32.60;;;;;;2249748;61;20361;-68
2021/06/17 04:58:14;0.00;0.00;0.62;0.00;0.00;0.62;10.00;9.10;;;30.40;32.70;;;;;;2250777;61;20356;-69
2021/06/17 05:00:43;0.00;0.00;0.62;0.00;0.00;0.62;10.20;9.40;;;30.40;32.70;;;;;;2250649;61;20365;-68
2021/06/17 05:03:10;0.00;0.00;0.62;0.00;0.00;0.62;10.50;9.30;;;30.40;32.80;;;;;;2248895;61;20743;-68
2021/06/17 05:05:37;0.00;0.00;0.62;0.00;0.00;0.62;10.27;9.50;;;30.30;32.80;;;;;;2250330;61;20365;-68
2021/06/17 05:10:53;0.00;0.00;0.62;0.00;0.00;0.62;10.70;9.80;;;30.30;32.80;;;;;;2249878;61;20381;-69
2021/06/17 05:13:23;0.00;0.00;0.62;0.00;0.00;0.62;11.13;10.03;;;30.30;32.90;;;;;;2251017;61;20353;-68
2021/06/17 05:15:53;0.00;0.00;0.62;0.00;0.00;0.62;10.90;9.80;;;30.30;33.00;;;;;;2250962;61;20400;-68
2021/06/17 05:18:21;0.00;0.00;0.62;0.00;0.00;0.62;12.07;11.07;;;30.30;33.00;;;;;;2250308;61;20358;-68
2021/06/17 05:20:49;0.00;0.00;0.62;0.00;0.00;0.62;10.90;10.00;;;30.30;33.10;;;;;;2250906;61;20381;-68
2021/06/17 05:23:21;0.00;0.00;0.62;0.00;0.00;0.62;12.10;11.00;;;30.20;33.10;;;;;;2250764;61;20357;-71
2021/06/17 05:25:49;0.00;0.00;0.62;0.00;0.00;0.62;10.10;9.20;;;30.20;33.20;;;;;;2252938;61;20624;-67
2021/06/17 05:28:20;0.00;0.00;0.62;0.00;0.00;0.62;10.60;9.70;;;30.20;33.40;;;;;;2250749;61;20395;-66
2021/06/17 05:30:47;0.00;0.00;0.62;0.00;0.00;0.62;10.57;9.67;;;30.20;33.40;;;;;;2250637;61;20369;-69
2021/06/17 05:33:17;0.00;0.00;0.62;0.00;0.00;0.62;10.00;9.20;;;30.20;33.40;;;;;;2250121;61;20358;-71
2021/06/17 05:35:46;0.00;0.00;0.62;0.00;0.00;0.62;10.97;10.07;;;30.20;33.60;;;;;;2250796;61;20436;-71
2021/06/17 05:38:15;0.00;0.00;0.62;0.00;0.00;0.62;11.00;9.90;;;30.20;33.60;;;;;;2249976;61;20357;-69
2021/06/17 05:40:42;0.00;0.00;0.62;0.00;0.00;0.62;10.30;9.40;;;30.20;33.60;;;;;;2249566;61;20369;-68
2021/06/17 05:43:10;0.00;0.00;0.62;0.00;0.00;0.62;13.47;10.43;;;30.20;33.60;;;;;;2250165;61;20756;-69
2021/06/17 05:45:36;0.00;0.00;0.62;0.00;0.00;0.62;11.63;10.53;;;30.20;33.60;;;;;;2252633;61;20686;-69
2021/06/17 05:48:03;0.00;0.00;0.62;0.00;0.00;0.62;11.03;9.90;;;30.20;33.60;;;;;;2252333;61;21177;-72
2021/06/17 05:50:32;0.00;0.00;0.62;0.00;0.00;0.62;11.20;10.10;;;30.20;33.60;;;;;;2250121;61;20397;-70
2021/06/17 05:52:58;0.00;0.00;0.62;0.00;0.00;0.62;9.87;9.00;;;30.20;33.60;;;;;;2252675;61;20369;-70
2021/06/17 05:55:26;0.00;0.00;0.62;0.00;0.00;0.62;10.10;9.20;;;30.20;33.60;;;;;;2249657;61;20354;-69
2021/06/17 05:57:52;0.00;0.00;0.62;0.00;0.00;0.62;11.27;9.87;;;30.20;33.60;;;;;;2250242;61;20714;-69
2021/06/17 06:00:19;0.00;0.00;0.62;0.00;0.00;0.62;11.43;10.40;;;30.20;33.60;;;;;;2250067;61;20631;-71
2021/06/17 06:02:46;0.00;0.00;0.62;0.00;0.00;0.62;10.60;9.63;;;30.20;33.60;;;;;;2249420;61;20385;-68
2021/06/17 06:05:12;0.00;0.00;0.62;0.00;0.00;0.62;10.30;9.23;;;30.20;33.60;;;;;;2250151;61;20357;-69
2021/06/17 06:07:41;0.00;0.00;0.62;0.00;0.00;0.62;10.87;9.40;;;30.20;33.60;;;;;;2249168;61;20746;-69
2021/06/17 06:10:09;0.00;0.00;0.62;0.00;0.00;0.62;11.00;9.90;;;30.30;33.90;;;;;;2249283;61;20627;-68
2021/06/17 06:12:36;0.00;0.00;0.62;0.00;0.00;0.62;11.03;10.00;;;30.30;33.80;;;;;;2249799;61;20637;-72
2021/06/17 06:15:05;0.00;0.00;0.62;0.00;0.00;0.62;10.80;9.80;;;30.30;33.90;;;;;;2249903;61;20359;-69
2021/06/17 06:17:31;0.00;0.00;0.62;0.00;0.00;0.62;10.83;9.80;;;30.30;33.80;;;;;;2252092;61;20392;-68
2021/06/17 06:19:59;0.00;0.00;0.62;0.00;0.00;0.62;11.17;10.00;;;30.40;34.00;;;;;;2249795;61;20757;-71
2021/06/17 06:22:26;0.00;0.00;0.62;0.00;0.00;0.62;10.37;9.40;;;30.40;34.10;;;;;;2249963;61;20603;-70
2021/06/17 06:24:54;0.00;0.00;0.62;0.00;0.00;0.62;11.20;10.20;;;30.40;34.10;;;;;;2249457;61;20683;-68
2021/06/17 06:27:20;0.00;0.00;0.62;0.00;0.00;0.62;11.10;10.10;;;30.40;34.10;;;;;;2249861;61;20370;-69
2021/06/17 06:29:49;0.00;0.00;0.62;0.00;0.00;0.62;10.20;9.50;;;30.40;34.20;;;;;;2249855;61;20436;-72
2021/06/17 06:32:15;0.00;0.00;0.62;0.00;0.00;0.62;11.27;10.33;;;30.40;34.20;;;;;;2249021;61;20428;-72
2021/06/17 06:34:42;0.00;0.00;0.62;0.00;0.00;0.62;11.33;10.20;;;30.40;34.30;;;;;;2250002;61;20358;-69
2021/06/17 06:37:09;0.00;0.00;0.62;0.00;0.00;0.62;10.57;9.67;;;30.50;34.40;;;;;;2250043;61;20452;-67
2021/06/17 06:39:35;0.00;0.00;0.62;0.00;0.00;0.62;11.30;9.70;;;30.50;34.30;;;;;;2249163;61;20362;-66
2021/06/17 06:42:05;0.00;0.00;0.62;0.00;0.00;0.62;11.23;10.13;;;30.50;34.40;;;;;;2252340;61;20378;-72
2021/06/17 06:44:31;0.00;0.00;0.62;0.00;0.00;0.62;11.10;10.10;;;30.50;34.30;;;;;;2252815;61;20773;-70
2021/06/17 06:46:59;0.00;0.00;0.62;0.00;0.00;0.62;10.33;9.43;;;30.50;34.30;;;;;;2249306;61;21102;-70
2021/06/17 06:49:26;0.00;0.00;0.62;0.00;0.00;0.62;10.90;9.80;;;30.60;35.00;;;;;;2252415;61;20434;-69
2021/06/17 06:51:52;0.00;0.00;0.62;0.00;0.00;0.62;10.33;9.43;;;30.60;34.50;;;;;;2249880;61;20381;-70
2021/06/17 06:54:19;0.00;0.00;0.62;0.00;0.00;0.62;11.27;10.17;;;30.60;34.50;;;;;;2249324;61;20408;-69
2021/06/17 06:56:47;0.00;0.00;0.62;0.00;0.00;0.62;10.80;9.80;;;30.60;34.60;;;;;;2249756;61;20364;-70
2021/06/17 06:59:16;0.00;0.00;0.62;0.00;0.00;0.62;11.20;10.20;;;30.70;34.70;;;;;;2252803;61;20381;-69
2021/06/17 07:01:43;0.00;0.00;0.62;0.00;0.00;0.62;10.93;9.97;;;30.70;34.70;;;;;;2249182;61;20385;-67
2021/06/17 07:04:09;0.00;0.00;0.62;0.00;0.00;0.62;12.00;11.10;;;30.70;34.60;;;;;;2249481;61;20361;-68
2021/06/17 07:06:36;0.00;0.00;0.62;0.00;0.00;0.62;11.40;10.50;;;30.70;34.60;;;;;;2250070;61;20493;-65
2021/06/17 07:09:03;0.00;0.00;0.62;0.00;0.00;0.62;11.07;10.07;;;30.70;34.50;;;;;;2249315;61;20467;-66
2021/06/17 07:11:31;0.00;0.00;0.62;0.00;0.00;0.62;11.23;10.33;;;30.70;34.60;;;;;;2249370;61;20393;-66
2021/06/17 07:13:58;0.00;0.00;0.62;0.00;0.00;0.62;11.83;10.63;;;30.80;34.60;;;;;;2251376;61;20384;-66
2021/06/17 07:16:26;0.00;0.00;0.62;0.00;0.00;0.62;11.70;10.70;;;30.80;34.70;;;;;;2251743;61;20365;-69
2021/06/17 07:18:54;0.00;0.00;0.62;0.00;0.00;0.62;10.33;9.53;;;30.80;34.60;;;;;;2253550;61;20582;-68
2021/06/17 07:21:21;0.00;0.00;0.62;0.00;0.00;0.62;12.30;11.10;;;30.80;34.70;;;;;;2253864;61;20507;-65
2021/06/17 07:23:50;0.00;0.00;0.62;0.00;0.00;0.62;11.00;9.60;;;30.80;34.80;;;;;;2251119;61;20408;-69
2021/06/17 07:26:20;0.00;0.00;0.62;0.00;0.00;0.62;10.63;9.80;;;30.90;34.80;;;;;;2253487;61;20364;-71
2021/06/17 07:28:47;0.00;0.00;0.62;0.00;0.00;0.62;12.83;10.67;;;30.80;34.70;;;;;;2253909;61;20641;-68
2021/06/17 07:31:15;0.00;0.00;0.62;0.00;0.00;0.62;11.07;10.13;;;30.90;34.70;;;;;;2253036;61;20383;-66
2021/06/17 07:33:46;0.00;0.00;0.62;0.00;0.00;0.62;10.60;9.80;;;30.90;34.70;;;;;;2253670;61;20725;-68
2021/06/17 07:36:15;0.00;0.00;0.62;0.00;0.00;0.62;10.23;9.43;;;30.90;34.60;;;;;;2253841;61;20371;-69
2021/06/17 07:38:42;0.00;0.00;0.62;0.00;0.00;0.62;10.57;9.63;;;30.90;34.60;;;;;;2252969;61;20357;-69
2021/06/17 07:41:12;0.00;0.00;0.62;0.00;0.00;0.62;10.13;9.13;;;31.00;34.50;;;;;;2253657;61;20614;-65
2021/06/17 07:43:40;0.00;0.00;0.62;0.00;0.00;0.62;9.63;8.83;;;31.00;34.50;;;;;;2253776;61;20357;-69
2021/06/17 07:46:09;0.00;0.00;0.62;0.00;0.00;0.62;10.53;9.57;;;31.00;34.50;;;;;;2252884;61;20591;-71
2021/06/17 07:48:38;0.00;0.00;0.62;0.00;0.00;0.62;11.63;9.10;;;31.10;34.50;;;;;;2253187;61;20471;-69
2021/06/17 07:51:09;0.00;0.00;0.62;0.00;0.00;0.62;9.97;9.17;;;31.10;34.30;;;;;;2249997;61;20386;-66
2021/06/17 07:53:38;0.00;0.00;0.62;0.00;0.00;0.62;9.60;8.90;;;31.10;34.20;;;;;;2252500;61;20423;-70
2021/06/17 07:56:05;0.00;0.00;0.62;0.00;0.00;0.62;11.10;8.80;;;31.10;34.20;;;;;;2253182;61;20392;-68
2021/06/17 07:58:33;0.00;0.00;0.62;0.00;0.00;0.62;9.90;9.03;;;31.20;34.30;;;;;;2253425;61;20353;-65
2021/06/17 08:01:01;0.00;0.00;0.62;0.00;0.00;0.62;9.90;9.00;;;31.20;34.30;;;;;;2252943;61;20376;-67
2021/06/17 08:03:31;0.00;0.00;0.62;0.00;0.00;0.62;9.00;8.30;;;31.20;34.30;;;;;;2253030;61;20357;-69
2021/06/17 08:05:59;0.00;0.00;0.62;0.00;0.00;0.62;10.20;9.40;;;31.30;34.40;;;;;;2253743;61;20357;-68
2021/06/17 08:08:31;0.00;0.00;0.62;0.00;0.00;0.62;9.50;8.70;;;31.30;34.30;;;;;;2252898;61;20384;-70
2021/06/17 08:10:59;0.00;0.00;0.62;0.00;0.00;0.62;8.97;8.27;;;31.30;34.30;;;;;;2253017;61;20484;-65
2021/06/17 08:13:28;0.00;0.00;0.62;0.00;0.00;0.62;9.40;8.50;;;31.30;34.40;;;;;;2253692;61;20364;-68
2021/06/17 08:15:57;0.00;0.00;0.62;0.00;0.00;0.62;8.87;8.20;;;31.40;34.40;;;;;;2252849;61;20368;-68
2021/06/17 08:18:25;0.00;0.00;0.62;0.00;0.00;0.62;9.10;8.30;;;31.40;34.40;;;;;;2253634;61;20357;-66
2021/06/17 08:20:54;0.00;0.00;0.62;0.00;0.00;0.62;8.63;7.93;;;31.40;34.40;;;;;;2253052;61;20383;-71
2021/06/17 08:23:21;0.00;0.00;0.62;0.00;0.00;0.62;8.77;7.97;;;31.50;34.30;;;;;;2252925;61;20434;-69
2021/06/17 08:25:52;0.00;0.00;0.62;0.00;0.00;0.62;9.07;8.27;;;31.50;34.20;;;;;;2253099;61;20383;-69
2021/06/17 08:28:25;0.00;0.00;0.62;0.00;0.00;0.62;8.87;8.07;;;31.50;34.10;;;;;;2253571;61;20384;-67
2021/06/17 08:30:55;0.00;0.00;0.62;0.00;0.00;0.62;8.90;8.20;;;31.60;34.10;;;;;;2253125;61;20419;-70
2021/06/17 08:33:23;0.00;0.00;0.62;0.00;0.00;0.62;8.97;8.27;;;31.60;34.10;;;;;;2249906;61;20353;-67
2021/06/17 08:35:52;0.00;0.00;0.62;0.00;0.00;0.62;9.07;8.27;;;31.60;34.00;;;;;;2253361;61;20403;-68
2021/06/17 08:38:21;0.00;0.00;0.62;0.00;0.00;0.62;8.50;7.90;;;31.60;33.90;;;;;;2253277;61;20425;-71
2021/06/17 08:40:50;0.00;0.00;0.62;0.00;0.00;0.62;8.07;7.37;;;31.70;33.90;;;;;;2253284;61;20389;-70
2021/06/17 08:43:19;0.00;0.00;0.62;0.00;0.00;0.62;8.17;7.40;;;31.70;33.90;;;;;;2249570;61;20368;-71
2021/06/17 08:45:47;0.00;0.00;0.62;0.00;0.00;0.62;8.63;7.93;;;31.70;33.80;;;;;;2253180;61;20356;-67
2021/06/17 08:48:15;0.00;0.00;0.62;0.00;0.00;0.62;8.27;7.63;;;31.70;33.70;;;;;;2253496;61;20403;-67
2021/06/17 08:50:43;0.00;0.00;0.62;0.00;0.00;0.62;8.10;7.50;;;31.80;33.80;;;;;;2253237;61;20360;-67
2021/06/17 08:53:12;0.00;0.00;0.62;0.00;0.00;0.62;7.87;7.13;;;31.70;33.60;;;;;;2253179;61;20560;-66
2021/06/17 08:55:40;0.00;0.00;0.62;0.00;0.00;0.62;8.77;7.97;;;31.80;33.60;;;;;;2253373;61;20387;-65
2021/06/17 08:58:10;0.00;0.00;0.62;0.00;0.00;0.62;8.03;7.33;;;31.80;33.60;;;;;;2252917;61;20353;-71
2021/06/17 09:00:43;0.00;0.00;0.62;0.00;0.00;0.62;8.30;7.70;;;31.80;33.50;;;;;;2249361;61;20356;-68
2021/06/17 09:03:15;0.00;0.00;0.62;0.00;0.00;0.62;8.10;7.30;;;31.90;33.50;;;;;;2253446;61;20348;-65
2021/06/17 09:05:45;0.00;0.00;0.62;0.00;0.00;0.62;8.60;7.83;;;31.90;33.40;;;;;;2253435;61;20723;-65
2021/06/17 09:08:16;0.00;0.00;0.62;0.00;0.00;0.62;8.03;7.43;;;31.90;33.40;;;;;;2252862;61;20651;-68
2021/06/17 09:10:46;0.00;0.00;0.62;0.00;0.00;0.62;7.20;6.70;;;31.90;33.40;;;;;;2252945;61;20353;-68
2021/06/17 09:13:17;0.00;0.00;0.62;0.00;0.00;0.62;8.33;7.73;;;32.00;33.50;;;;;;2253323;61;20847;-69
2021/06/17 09:15:50;0.00;0.00;0.62;0.00;0.00;0.62;8.30;7.70;;;32.00;33.50;;;;;;2253066;61;20384;-71
2021/06/17 09:18:22;0.00;0.00;0.62;0.00;0.00;0.62;8.27;7.57;;;32.00;33.50;;;;;;2253811;61;20792;-68
2021/06/17 09:20:57;0.00;0.00;0.62;0.00;0.00;0.62;8.63;7.90;;;32.00;33.50;;;;;;2253995;61;20387;-68
2021/06/17 09:23:31;0.00;0.00;0.62;0.00;0.00;0.62;7.30;6.80;;;32.10;33.60;;;;;;2253395;61;20364;-67
2021/06/17 09:26:02;0.00;0.00;0.62;0.00;0.00;0.62;7.10;6.37;;;32.10;33.50;;;;;;2253715;61;20364;-68
2021/06/17 09:28:54;0.00;0.00;0.62;0.00;0.00;0.62;7.80;7.20;;;32.10;33.40;;;;;;2254138;61;20388;-67
2021/06/17 09:31:25;0.00;0.00;0.62;0.00;0.00;0.62;7.13;6.60;;;32.10;33.30;;;;;;2253347;61;20382;-68
2021/06/17 09:33:54;0.00;0.00;0.62;0.00;0.00;0.62;7.10;6.50;;;32.10;33.30;;;;;;2253860;61;20357;-68
2021/06/17 09:36:22;0.00;0.00;0.62;0.00;0.00;0.62;7.27;6.60;;;32.20;33.40;;;;;;2253984;61;20380;-69
2021/06/17 09:38:53;0.00;0.00;0.62;0.00;0.00;0.62;8.60;7.30;;;32.20;33.40;;;;;;2253316;61;20704;-67
2021/06/17 09:41:36;0.00;0.00;0.62;0.00;0.00;0.62;7.87;7.20;;;32.20;33.30;;;;;;2254147;61;20418;-67
2021/06/17 09:44:26;0.00;0.00;0.62;0.00;0.00;0.62;7.40;6.80;;;32.30;33.30;;;;;;2253852;61;21024;-67
2021/06/17 09:47:05;0.00;0.00;0.62;0.00;0.00;0.62;6.97;6.43;;;32.20;33.10;;;;;;2253534;61;20375;-68
2021/06/17 09:49:38;0.00;0.00;0.62;0.00;0.00;0.62;7.00;6.40;;;32.30;33.10;;;;;;2254118;61;20380;-70